Time;durP1;ratioP1;P1;durP2;ratioP2;P2;SDS_P1;SDS_P2;PMS_P1;PMS_P2;Temp;Humidity;BMP_temperature;BMP_pressure;BME280_temperature;BME280_humidity;BME280_pressure;Samples;Min_cycle;Max_cycle;Signal;HPM_P1;HPM_P2
2022/08/19 12:25:24;;;;;;;7.60;5.70;;;;;;;36.45;52.86;99886.18;637637;1312;1526798;-82
2022/08/19 12:40:27;;;;;;;11.30;6.00;;;;;;;36.47;51.64;99883.52;650196;1289;137880;-81
2022/08/19 12:55:31;;;;;;;10.50;6.10;;;;;;;37.26;50.53;99869.21;650137;1290;25591;-82
2022/08/19 13:10:35;;;;;;;8.80;5.50;;;;;;;37.44;49.58;99850.79;648943;1290;24341;-88
2022/08/19 13:25:39;;;;;;;8.70;5.40;;;;;;;37.14;49.43;99849.52;648127;1290;22579;-80
2022/08/19 13:40:43;;;;;;;10.10;6.30;;;;;;;37.32;49.08;99848.83;651604;1288;23074;-83
2022/08/19 13:55:49;;;;;;;10.70;5.70;;;;;;;37.32;49.29;99842.17;650853;1289;22554;-82
2022/08/19 14:10:53;;;;;;;14.40;6.90;;;;;;;37.56;49.78;99850.12;650827;1288;31314;-80
2022/08/19 14:26:13;;;;;;;8.20;6.80;;;;;;;39.42;48.57;99849.20;651190;1289;26449;-82
2022/08/19 14:41:19;;;;;;;12.60;7.80;;;;;;;41.52;46.79;99850.24;651165;1288;22554;-79
2022/08/19 14:56:27;;;;;;;9.20;6.40;;;;;;;41.99;45.27;99851.32;652521;1288;23333;-82
2022/08/19 15:11:32;;;;;;;11.20;6.90;;;;;;;39.12;48.72;99837.70;652260;1289;27353;-82
2022/08/19 15:26:36;;;;;;;9.80;6.40;;;;;;;41.33;47.28;99823.60;650842;1289;22563;-80
2022/08/19 15:41:42;;;;;;;11.50;7.40;;;;;;;39.32;47.51;99828.35;649499;1289;25345;-81
2022/08/19 16:12:12;;;;;;;12.00;7.40;;;;;;;35.83;52.40;99814.69;649947;1290;22831;-80
2022/08/19 16:27:15;;;;;;;10.50;7.40;;;;;;;34.94;54.06;99816.93;650142;1288;25586;-81
2022/08/19 16:42:19;;;;;;;9.20;7.40;;;;;;;34.49;55.80;99815.55;649748;1289;24330;-79
2022/08/19 16:57:23;;;;;;;10.50;8.20;;;;;;;34.39;56.68;99822.59;650659;1289;22556;-80
2022/08/19 17:12:27;;;;;;;14.90;8.20;;;;;;;33.98;57.93;99832.79;650650;1290;25488;-81
2022/08/19 17:27:34;;;;;;;10.30;7.80;;;;;;;33.61;58.93;99835.23;649302;1289;139449;-81
2022/08/19 17:42:40;;;;;;;10.90;5.50;;;;;;;33.27;59.39;99843.48;649948;1289;137951;-80
2022/08/19 17:57:43;;;;;;;12.40;6.20;;;;;;;32.81;59.49;99858.15;649762;1289;137792;-80
2022/08/19 18:12:49;;;;;;;12.30;5.80;;;;;;;32.35;59.70;99872.93;650298;1288;138081;-81
2022/08/19 18:27:57;;;;;;;7.50;5.10;;;;;;;32.07;59.85;99884.33;651767;1288;138715;-80
2022/08/19 18:58:15;;;;;;;7.90;5.30;;;;;;;31.55;60.79;99883.30;650128;1289;138505;-80
2022/08/19 19:13:19;;;;;;;16.80;6.80;;;;;;;31.37;60.99;99885.52;651905;1287;140068;-80
2022/08/19 19:28:26;;;;;;;9.40;5.00;;;;;;;31.11;61.23;99874.07;650689;1289;138204;-81
2022/08/19 19:43:30;;;;;;;;;;;;;;;30.83;62.41;99886.91;651185;1287;138775;-80
2022/08/19 19:58:43;;;;;;;11.00;6.20;;;;;;;30.60;63.63;99894.94;655624;1288;125214;-80
2022/08/19 20:13:47;;;;;;;7.30;5.50;;;;;;;30.40;64.57;99884.36;650855;1288;138153;-80
2022/08/19 20:28:51;;;;;;;9.70;5.60;;;;;;;30.15;65.02;99878.45;649351;1288;138917;-80
2022/08/19 20:44:14;;;;;;;9.00;4.30;;;;;;;29.93;65.77;99900.87;650202;1287;137838;-80
2022/08/19 20:59:20;;;;;;;9.50;4.80;;;;;;;29.70;66.38;99924.77;649775;1288;137902;-80
2022/08/19 21:14:23;;;;;;;9.90;4.60;;;;;;;29.59;66.65;99934.36;649909;1287;138579;-80
2022/08/19 21:29:27;;;;;;;8.40;4.50;;;;;;;29.44;66.77;99924.90;650072;1288;137957;-80
2022/08/19 21:44:31;;;;;;;12.60;5.30;;;;;;;29.33;66.81;99945.13;649746;1288;139242;-80
2022/08/19 21:59:39;;;;;;;;;;;;;;;29.10;67.45;99951.84;650434;1288;138068;-80
2022/08/19 22:14:46;;;;;;;9.80;5.20;;;;;;;28.86;68.36;99935.19;652257;1285;125324;-80
2022/08/19 22:29:49;;;;;;;7.50;5.80;;;;;;;28.78;69.77;99919.63;651502;1285;138697;-81
2022/08/19 22:44:57;;;;;;;12.20;5.70;;;;;;;28.65;72.58;99920.70;652432;1284;138974;-81
2022/08/19 23:00:01;;;;;;;14.80;6.30;;;;;;;27.87;80.91;99965.19;652072;1284;137984;-81
2022/08/19 23:15:16;;;;;;;14.30;7.20;;;;;;;27.27;84.30;99975.17;651905;1284;138913;-80
2022/08/19 23:30:27;;;;;;;18.60;8.40;;;;;;;26.87;87.32;100003.52;652024;1284;138921;-81
2022/08/19 23:45:32;;;;;;;16.50;9.70;;;;;;;26.07;97.72;100025.94;651486;1284;139379;-81
